Terminal Aerodrome Forecast
Issued by NWS St Louis, MO

Home | Current Version | Previous Version | Text Only | Print | Product List | Glossary On
Versions: 1 2 3 4 5 6 7 8 9 10 11 12 13 14 15 16 17 18 19 20 21 22 23 24 25 26 27 28 29
000
FTUS43 KLSX 151700
TAFSTL
TAF
KSTL 151739Z 1518/1624 14017G27KT P6SM OVC009
     FM152100 16014G24KT P6SM VCSH BKN015
     FM160300 24014G24KT P6SM OVC015
     FM161200 29016G26KT P6SM OVC015
     FM162100 30014G24KT P6SM BKN030=

USA.gov is the U.S. government's official web portal to all federal, state and local government web resources and services.